createdAt,value
2018-09-26T00:00:04.718Z,99471.55
2018-09-26T00:02:35.530Z,99468.00
2018-09-26T00:05:04.221Z,99463.41
2018-09-26T00:07:32.730Z,99459.47
2018-09-26T00:10:01.224Z,99452.75
2018-09-26T00:12:29.881Z,99452.75
2018-09-26T00:14:58.491Z,99449.42
2018-09-26T00:17:27.053Z,99447.55
2018-09-26T00:19:55.597Z,99442.52
2018-09-26T00:22:24.146Z,99434.37
2018-09-26T00:24:53.041Z,99428.45
2018-09-26T00:27:21.625Z,99419.50
2018-09-26T00:29:50.237Z,99418.63
2018-09-26T00:32:18.767Z,99420.30
2018-09-26T00:34:47.330Z,99426.78
2018-09-26T00:37:15.850Z,99414.80
2018-09-26T00:39:44.397Z,99408.88
2018-09-26T00:42:13.087Z,99411.82
2018-09-26T00:44:41.618Z,99410.16
2018-09-26T00:47:10.189Z,99409.77
2018-09-26T00:49:38.676Z,99408.88
2018-09-26T00:52:07.291Z,99401.20
2018-09-26T00:54:35.881Z,99400.81
2018-09-26T00:57:04.370Z,99400.73
2018-09-26T00:59:32.923Z,99399.92
2018-09-26T01:02:01.569Z,99396.89
2018-09-26T01:04:30.128Z,99392.16
2018-09-26T01:06:58.676Z,99386.84
2018-09-26T01:09:27.219Z,99389.69
2018-09-26T01:11:55.734Z,99385.85
2018-09-26T01:14:24.287Z,99382.91
2018-09-26T01:16:52.814Z,99379.84
2018-09-26T01:19:21.317Z,99368.33
2018-09-26T01:21:49.856Z,99363.22
2018-09-26T01:24:18.387Z,99357.62
2018-09-26T01:26:46.927Z,99355.06
2018-09-26T01:29:15.455Z,99349.06
2018-09-26T01:31:43.967Z,99352.98
2018-09-26T01:34:12.493Z,99343.56
2018-09-26T01:36:41.002Z,99341.09
2018-09-26T01:39:10.267Z,99339.81
2018-09-26T01:41:38.803Z,99330.86
2018-09-26T01:44:07.483Z,99333.80
2018-09-26T01:46:36.025Z,99326.93
2018-09-26T01:49:04.555Z,99316.78
2018-09-26T01:51:33.206Z,99313.25
2018-09-26T01:54:01.748Z,99306.85
2018-09-26T01:56:30.288Z,99311.67
2018-09-26T01:58:58.886Z,99314.23
2018-09-26T02:01:27.495Z,99321.52
2018-09-26T02:03:56.052Z,99324.46
2018-09-26T02:06:24.658Z,99320.53
2018-09-26T02:08:53.219Z,99329.87
2018-09-26T02:11:21.820Z,99332.05
2018-09-26T02:13:50.390Z,99324.38
2018-09-26T02:16:18.962Z,99324.46
2018-09-26T02:18:47.867Z,99328.30
2018-09-26T02:21:16.601Z,99335.59
2018-09-26T02:23:45.295Z,99339.00
2018-09-26T02:26:14.680Z,99339.42
2018-09-26T02:28:43.273Z,99335.67
2018-09-26T02:31:11.877Z,99326.22
2018-09-26T02:33:40.426Z,99318.54
2018-09-26T02:36:09.127Z,99305.36
2018-09-26T02:38:37.650Z,99303.70
2018-09-26T02:41:06.332Z,99305.75
2018-09-26T02:43:34.848Z,99315.21
2018-09-26T02:46:03.408Z,99307.03
2018-09-26T02:48:37.241Z,99301.05
2018-09-26T02:51:05.819Z,99298.50
2018-09-26T02:53:34.380Z,99301.44
2018-09-26T02:56:04.065Z,99300.07
2018-09-26T02:58:32.707Z,99300.64
2018-09-26T03:01:01.705Z,99302.33
2018-09-26T03:03:30.291Z,99293.77
2018-09-26T03:05:58.845Z,99295.43
2018-09-26T03:08:27.448Z,99296.32
2018-09-26T03:10:56.085Z,99302.33
2018-09-26T03:13:24.601Z,99301.91
2018-09-26T03:15:53.152Z,99290.82
2018-09-26T03:18:21.740Z,99286.98
2018-09-26T03:20:50.335Z,99275.86
2018-09-26T03:23:18.863Z,99278.03
2018-09-26T03:25:47.494Z,99282.73
2018-09-26T03:28:16.070Z,99286.98
2018-09-26T03:30:44.603Z,99281.87
2018-09-26T03:33:13.156Z,99278.03
2018-09-26T03:35:41.700Z,99284.42
2018-09-26T03:38:10.252Z,99283.14
2018-09-26T03:40:38.855Z,99285.28
2018-09-26T03:43:08.339Z,99288.27
2018-09-26T03:45:36.928Z,99291.77
2018-09-26T03:48:06.034Z,99294.75
2018-09-26T03:50:34.570Z,99302.42
2018-09-26T03:53:03.230Z,99296.80
2018-09-26T03:55:31.804Z,99287.45
2018-09-26T03:58:00.371Z,99282.73
2018-09-26T04:00:28.981Z,99278.42
2018-09-26T04:02:57.507Z,99273.30
2018-09-26T04:05:26.087Z,99274.58
2018-09-26T04:07:54.680Z,99271.73
2018-09-26T04:10:24.092Z,99261.23
2018-09-26T04:12:52.784Z,99264.34
2018-09-26T04:15:21.284Z,99262.69
2018-09-26T04:17:49.794Z,99268.27
2018-09-26T04:20:18.430Z,99258.94
2018-09-26T04:22:47.018Z,99249.98
2018-09-26T04:25:15.573Z,99252.54
2018-09-26T04:27:44.232Z,99248.70
2018-09-26T04:30:15.911Z,99254.67
2018-09-26T04:32:45.199Z,99251.73
2018-09-26T04:35:13.779Z,99255.19
2018-09-26T04:37:42.310Z,99259.88
2018-09-26T04:40:11.463Z,99262.52
2018-09-26T04:42:40.903Z,99260.77
2018-09-26T04:45:09.458Z,99268.92
2018-09-26T04:47:37.991Z,99269.34
2018-09-26T04:50:06.501Z,99274.93
2018-09-26T04:52:35.014Z,99280.94
2018-09-26T04:55:03.554Z,99284.27
2018-09-26T04:57:32.059Z,99290.28
2018-09-26T05:00:00.624Z,99291.55
2018-09-26T05:02:29.176Z,99293.73
2018-09-26T05:04:57.700Z,99297.23
2018-09-26T05:07:26.191Z,99295.48
2018-09-26T05:09:54.766Z,99295.09
2018-09-26T05:12:23.274Z,99307.89
2018-09-26T05:14:52.662Z,99305.72
2018-09-26T05:17:21.183Z,99310.03
2018-09-26T05:19:49.707Z,99309.17
2018-09-26T05:22:18.399Z,99315.14
2018-09-26T05:24:46.940Z,99307.89
2018-09-26T05:27:15.524Z,99305.80
2018-09-26T05:29:44.044Z,99310.92
2018-09-26T05:32:12.521Z,99308.84
2018-09-26T05:34:41.063Z,99315.66
2018-09-26T05:37:09.627Z,99310.53
2018-09-26T05:39:38.145Z,99304.14
2018-09-26T05:42:06.656Z,99300.30
2018-09-26T05:44:35.170Z,99296.29
2018-09-26T05:47:03.735Z,99300.13
2018-09-26T05:49:32.285Z,99298.05
2018-09-26T05:52:00.834Z,99297.66
2018-09-26T05:54:29.357Z,99297.66
2018-09-26T05:56:57.896Z,99293.91
2018-09-26T05:59:26.439Z,99287.51
2018-09-26T06:01:54.976Z,99290.54
2018-09-26T06:04:23.659Z,99296.13
2018-09-26T06:06:52.242Z,99296.13
2018-09-26T06:09:20.762Z,99290.63
2018-09-26T06:11:49.290Z,99303.12
2018-09-26T06:14:17.903Z,99296.72
2018-09-26T06:16:46.430Z,99292.89
2018-09-26T06:19:14.954Z,99293.27
2018-09-26T06:21:43.449Z,99297.20
2018-09-26T06:24:11.958Z,99295.83
2018-09-26T06:26:40.507Z,99295.92
2018-09-26T06:29:09.051Z,99291.70
2018-09-26T06:31:37.619Z,99291.70
2018-09-26T06:34:06.138Z,99293.75
2018-09-26T06:36:34.674Z,99299.76
2018-09-26T06:39:03.235Z,99301.13
2018-09-26T06:41:31.722Z,99293.45
2018-09-26T06:44:00.214Z,99292.26
2018-09-26T06:46:28.749Z,99291.95
2018-09-26T06:48:57.279Z,99296.91
2018-09-26T06:51:25.762Z,99301.13
2018-09-26T06:53:54.290Z,99290.00
2018-09-26T06:56:22.781Z,99287.05
2018-09-26T06:58:51.373Z,99284.87
2018-09-26T07:01:19.868Z,99287.05
2018-09-26T07:03:48.559Z,99285.30
2018-09-26T07:06:17.068Z,99291.19
2018-09-26T07:08:45.581Z,99302.70
2018-09-26T07:11:14.089Z,99304.48
2018-09-26T07:13:42.639Z,99303.21
2018-09-26T07:16:11.098Z,99299.76
2018-09-26T07:18:39.748Z,99301.51
2018-09-26T07:21:08.230Z,99298.95
2018-09-26T07:23:36.727Z,99296.01
2018-09-26T07:26:05.219Z,99295.11
2018-09-26T07:28:33.692Z,99296.09
2018-09-26T07:31:02.167Z,99303.77
2018-09-26T07:33:30.756Z,99299.55
2018-09-26T07:35:59.350Z,99295.70
2018-09-26T07:38:27.927Z,99288.03
2018-09-26T07:40:56.530Z,99280.44
2018-09-26T07:43:25.355Z,99283.47
2018-09-26T07:45:53.981Z,99281.72
2018-09-26T07:48:22.552Z,99286.92
2018-09-26T07:50:51.119Z,99295.08
2018-09-26T07:53:19.712Z,99297.25
2018-09-26T07:55:48.227Z,99292.98
2018-09-26T07:58:16.725Z,99295.55
2018-09-26T08:00:45.339Z,99304.50
2018-09-26T08:03:13.900Z,99312.60
2018-09-26T08:05:42.423Z,99304.92
2018-09-26T08:08:11.003Z,99305.31
2018-09-26T08:10:39.503Z,99297.25
2018-09-26T08:13:08.128Z,99292.98
2018-09-26T08:15:36.620Z,99296.44
2018-09-26T08:18:05.198Z,99287.95
2018-09-26T08:20:33.684Z,99288.38
2018-09-26T08:23:02.262Z,99284.12
2018-09-26T08:25:30.763Z,99288.38
2018-09-26T08:27:59.313Z,99291.80
2018-09-26T08:30:27.831Z,99299.98
2018-09-26T08:32:56.527Z,99291.80
2018-09-26T08:35:25.185Z,99293.58
2018-09-26T08:37:53.678Z,99296.23
2018-09-26T08:40:22.501Z,99297.59
2018-09-26T08:42:50.985Z,99293.33
2018-09-26T08:45:19.764Z,99292.68
2018-09-26T08:47:48.242Z,99285.27
2018-09-26T08:50:16.735Z,99284.71
2018-09-26T08:52:45.251Z,99288.05
2018-09-26T08:55:13.740Z,99287.09
2018-09-26T08:57:42.218Z,99281.47
2018-09-26T09:00:10.751Z,99273.16
2018-09-26T09:02:39.251Z,99269.14
2018-09-26T09:05:07.731Z,99274.08
2018-09-26T09:07:36.219Z,99270.55
2018-09-26T09:10:04.738Z,99272.63
2018-09-26T09:12:33.268Z,99253.47
2018-09-26T09:15:01.767Z,99272.55
2018-09-26T09:17:30.269Z,99275.02
2018-09-26T09:19:58.751Z,99276.86
2018-09-26T09:22:27.236Z,99277.75
2018-09-26T09:24:56.587Z,99281.67
2018-09-26T09:27:26.961Z,99273.53
2018-09-26T09:29:55.427Z,99271.05
2018-09-26T09:32:23.976Z,99267.98
2018-09-26T09:34:52.423Z,99262.48
2018-09-26T09:37:20.894Z,99263.38
2018-09-26T09:39:49.403Z,99261.20
2018-09-26T09:42:17.896Z,99261.68
2018-09-26T09:44:46.369Z,99266.41
2018-09-26T09:47:14.861Z,99262.48
2018-09-26T09:49:43.361Z,99263.30
2018-09-26T09:52:11.880Z,99259.45
2018-09-26T09:54:40.375Z,99255.62
2018-09-26T09:57:08.899Z,99250.08
2018-09-26T09:59:37.407Z,99246.24
2018-09-26T10:02:05.899Z,99251.44
2018-09-26T10:04:34.382Z,99260.82
2018-09-26T10:07:04.074Z,99259.63
2018-09-26T10:09:32.577Z,99256.65
2018-09-26T10:12:01.085Z,99254.17
2018-09-26T10:14:29.661Z,99253.70
2018-09-26T10:16:58.109Z,99256.34
2018-09-26T10:19:26.613Z,99257.62
2018-09-26T10:21:55.109Z,99255.54
2018-09-26T10:24:23.619Z,99247.86
2018-09-26T10:26:52.130Z,99250.42
2018-09-26T10:29:20.625Z,99253.06
2018-09-26T10:31:49.099Z,99249.23
2018-09-26T10:34:17.611Z,99248.45
2018-09-26T10:36:46.090Z,99255.24
2018-09-26T10:39:14.572Z,99255.33
2018-09-26T10:41:43.075Z,99252.77
2018-09-26T10:44:11.593Z,99241.25
2018-09-26T10:46:40.203Z,99243.98
2018-09-26T10:49:08.988Z,99238.06
2018-09-26T10:51:37.484Z,99226.63
2018-09-26T10:54:05.969Z,99234.30
2018-09-26T10:56:34.589Z,99224.88
2018-09-26T10:59:02.985Z,99227.91
2018-09-26T11:01:31.459Z,99231.44
2018-09-26T11:03:59.939Z,99231.44
2018-09-26T11:06:28.431Z,99229.36
2018-09-26T11:08:56.911Z,99223.47
2018-09-26T11:11:25.539Z,99226.88
2018-09-26T11:13:54.043Z,99227.42
2018-09-26T11:16:22.544Z,99220.22
2018-09-26T11:18:51.132Z,99218.55
2018-09-26T11:21:19.682Z,99216.45
2018-09-26T11:23:48.086Z,99216.07
2018-09-26T11:26:16.645Z,99215.66
2018-09-26T11:28:45.084Z,99210.62
2018-09-26T11:31:13.839Z,99208.64
2018-09-26T11:33:42.503Z,99210.39
2018-09-26T11:36:11.003Z,99204.08
2018-09-26T11:38:39.516Z,99206.55
2018-09-26T11:41:08.048Z,99207.06
2018-09-26T11:43:36.603Z,99204.00
2018-09-26T11:46:05.155Z,99199.77
2018-09-26T11:48:33.621Z,99204.08
2018-09-26T11:51:02.124Z,99200.16
2018-09-26T11:53:30.651Z,99195.93
2018-09-26T11:55:59.225Z,99186.97
2018-09-26T11:58:27.774Z,99182.23
2018-09-26T12:00:56.151Z,99175.92
2018-09-26T12:03:24.749Z,99176.43
2018-09-26T12:05:53.246Z,99169.14
2018-09-26T12:08:21.770Z,99158.81
2018-09-26T12:10:50.256Z,99157.62
2018-09-26T12:13:18.795Z,99160.73
2018-09-26T12:15:47.294Z,99157.86
2018-09-26T12:18:15.821Z,99163.37
2018-09-26T12:20:44.336Z,99153.13
2018-09-26T12:23:12.824Z,99153.13
2018-09-26T12:25:41.306Z,99154.03
2018-09-26T12:28:09.915Z,99159.61
2018-09-26T12:30:38.389Z,99159.61
2018-09-26T12:33:06.922Z,99160.50
2018-09-26T12:35:35.414Z,99160.12
2018-09-26T12:38:04.003Z,99161.40
2018-09-26T12:40:32.585Z,99156.75
2018-09-26T12:43:01.116Z,99153.38
2018-09-26T12:45:30.043Z,99151.70
2018-09-26T12:47:58.557Z,99157.72
2018-09-26T12:50:27.039Z,99150.90
2018-09-26T12:52:55.523Z,99143.22
2018-09-26T12:55:24.007Z,99147.30
2018-09-26T12:57:52.510Z,99134.03
2018-09-26T13:00:21.700Z,99130.58
2018-09-26T13:02:50.213Z,99127.25
2018-09-26T13:05:18.649Z,99119.95
2018-09-26T13:07:47.130Z,99122.67
2018-09-26T13:10:15.685Z,99114.60
2018-09-26T13:12:44.149Z,99117.16
2018-09-26T13:15:12.661Z,99118.83
2018-09-26T13:17:41.271Z,99120.92
2018-09-26T13:20:09.846Z,99116.19
2018-09-26T13:22:38.397Z,99114.02
2018-09-26T13:25:06.906Z,99114.44
2018-09-26T13:27:35.470Z,99107.54
2018-09-26T13:30:04.225Z,99098.19
2018-09-26T13:32:32.941Z,99097.72
2018-09-26T13:35:01.663Z,99094.27
2018-09-26T13:37:31.092Z,99087.88
2018-09-26T13:39:59.888Z,99083.95
2018-09-26T13:42:28.639Z,99084.84
2018-09-26T13:44:57.503Z,99078.02
2018-09-26T13:47:26.267Z,99077.23
2018-09-26T13:49:54.983Z,99074.68
2018-09-26T13:52:23.621Z,99081.08
2018-09-26T13:54:52.343Z,99068.67
2018-09-26T13:57:21.443Z,99065.22
2018-09-26T13:59:50.121Z,99067.78
2018-09-26T14:02:18.838Z,99063.47
2018-09-26T14:04:47.861Z,99067.31
2018-09-26T14:07:16.345Z,99069.48
2018-09-26T14:09:44.886Z,99060.91
2018-09-26T14:12:13.425Z,99062.19
2018-09-26T14:14:41.933Z,99060.09
2018-09-26T14:17:10.515Z,99059.24
2018-09-26T14:19:39.045Z,99050.67
2018-09-26T14:22:07.539Z,99054.90
2018-09-26T14:24:36.071Z,99058.66
2018-09-26T14:27:04.622Z,99053.96
2018-09-26T14:29:33.118Z,99054.82
2018-09-26T14:32:01.646Z,99053.46
2018-09-26T14:34:30.234Z,99053.46
2018-09-26T14:36:58.786Z,99044.58
2018-09-26T14:39:27.383Z,99040.27
2018-09-26T14:41:55.898Z,99033.80
2018-09-26T14:44:24.516Z,99029.06
2018-09-26T14:46:52.954Z,99028.67
2018-09-26T14:49:21.566Z,99018.82
2018-09-26T14:51:50.049Z,99023.87
2018-09-26T14:54:18.606Z,99020.91
2018-09-26T14:56:47.259Z,99020.11
2018-09-26T14:59:15.789Z,99018.44
2018-09-26T15:01:44.349Z,99013.31
2018-09-26T15:04:12.965Z,99017.55
2018-09-26T15:06:41.488Z,99016.27
2018-09-26T15:09:10.071Z,99015.41
2018-09-26T15:11:38.611Z,99018.44
2018-09-26T15:14:07.171Z,99018.44
2018-09-26T15:16:35.744Z,99013.70
2018-09-26T15:19:04.273Z,99018.05
2018-09-26T15:21:32.883Z,99012.42
2018-09-26T15:24:01.466Z,99015.88
2018-09-26T15:26:30.043Z,99008.20
2018-09-26T15:28:58.571Z,99010.29
2018-09-26T15:31:27.098Z,99016.61
2018-09-26T15:33:55.687Z,99019.09
2018-09-26T15:36:24.269Z,99017.39
2018-09-26T15:38:52.779Z,99020.38
2018-09-26T15:41:21.323Z,99013.47
2018-09-26T15:43:49.879Z,99019.02
2018-09-26T15:46:18.510Z,99018.04
2018-09-26T15:48:46.940Z,99016.77
2018-09-26T15:51:15.423Z,99020.99
2018-09-26T15:53:43.930Z,99017.97
2018-09-26T15:56:12.451Z,99011.56
2018-09-26T15:58:40.984Z,99014.90
2018-09-26T16:01:09.584Z,99009.31
2018-09-26T16:03:38.046Z,99016.61
2018-09-26T16:06:06.587Z,99015.33
2018-09-26T16:08:35.049Z,99010.91
2018-09-26T16:11:03.534Z,99007.48
2018-09-26T16:13:32.023Z,99011.25
2018-09-26T16:16:00.688Z,99009.55
2018-09-26T16:18:29.157Z,99014.27
2018-09-26T16:20:57.718Z,99014.66
2018-09-26T16:23:26.191Z,99009.89
2018-09-26T16:25:54.819Z,99015.09
2018-09-26T16:28:23.295Z,99012.53
2018-09-26T16:30:51.715Z,99005.52
2018-09-26T16:33:20.236Z,99017.14
2018-09-26T16:35:48.739Z,99021.77
2018-09-26T16:38:17.246Z,99022.69
2018-09-26T16:40:45.709Z,99017.56
2018-09-26T16:43:14.199Z,99022.27
2018-09-26T16:45:42.919Z,99017.14
2018-09-26T16:48:11.396Z,99016.17
2018-09-26T16:50:39.871Z,99015.67
2018-09-26T16:53:08.359Z,99019.43
2018-09-26T16:55:36.851Z,99019.86
2018-09-26T16:58:05.561Z,99025.75
2018-09-26T17:00:34.056Z,99025.28
2018-09-26T17:03:02.599Z,99025.75
2018-09-26T17:05:31.074Z,99022.33
2018-09-26T17:07:59.561Z,99021.91
2018-09-26T17:10:28.052Z,99030.95
2018-09-26T17:12:56.551Z,99030.56
2018-09-26T17:15:25.048Z,99034.00
2018-09-26T17:17:53.537Z,99043.35
2018-09-26T17:20:22.088Z,99053.98
2018-09-26T17:22:50.532Z,99042.07
2018-09-26T17:28:22.388Z,99047.27
2018-09-26T17:30:50.856Z,99047.11
2018-09-26T17:33:19.359Z,99049.59
2018-09-26T17:35:47.853Z,99052.77
2018-09-26T17:38:16.414Z,99050.56
2018-09-26T17:40:44.911Z,99056.37
2018-09-26T17:43:13.412Z,99054.55
2018-09-26T17:45:41.973Z,99054.08
2018-09-26T17:48:10.426Z,99056.63
2018-09-26T17:50:38.910Z,99060.55
2018-09-26T17:53:07.388Z,99058.38
2018-09-26T17:55:35.890Z,99058.85
2018-09-26T17:58:04.365Z,99052.45
2018-09-26T18:00:32.852Z,99050.40
2018-09-26T18:03:01.335Z,99049.12
2018-09-26T18:05:29.807Z,99053.73
2018-09-26T18:07:58.282Z,99053.73
2018-09-26T18:10:26.755Z,99052.06
2018-09-26T18:12:55.263Z,99054.63
2018-09-26T18:15:23.735Z,99056.80
2018-09-26T18:17:52.209Z,99058.47
2018-09-26T18:20:20.744Z,99062.30
2018-09-26T18:22:49.181Z,99056.72
2018-09-26T18:25:17.676Z,99067.81
2018-09-26T18:27:46.211Z,99063.11
2018-09-26T18:30:14.679Z,99063.97
2018-09-26T18:32:43.163Z,99066.14
2018-09-26T18:35:11.644Z,99063.19
2018-09-26T18:37:40.306Z,99059.66
2018-09-26T18:40:08.772Z,99063.11
2018-09-26T18:42:37.298Z,99063.11
2018-09-26T18:45:06.100Z,99067.34
2018-09-26T18:47:34.523Z,99076.38
2018-09-26T18:50:02.999Z,99073.34
2018-09-26T18:52:31.463Z,99074.62
2018-09-26T18:54:59.976Z,99071.56
2018-09-26T18:57:28.496Z,99071.56
2018-09-26T18:59:56.979Z,99077.19
2018-09-26T19:02:25.445Z,99079.33
2018-09-26T19:04:54.022Z,99088.70
2018-09-26T19:07:22.399Z,99083.50
2018-09-26T19:09:50.862Z,99083.50
2018-09-26T19:12:19.410Z,99088.70
2018-09-26T19:14:47.826Z,99091.26
2018-09-26T19:17:16.312Z,99092.54
2018-09-26T19:19:44.803Z,99095.95
2018-09-26T19:22:13.281Z,99092.45
2018-09-26T19:24:41.762Z,99088.70
2018-09-26T19:27:10.283Z,99089.01
2018-09-26T19:29:38.776Z,99088.20
2018-09-26T19:32:07.283Z,99089.01
2018-09-26T19:34:35.760Z,99095.88
2018-09-26T19:37:04.234Z,99092.45
2018-09-26T19:39:32.713Z,99099.24
2018-09-26T19:42:01.217Z,99095.02
2018-09-26T19:44:29.689Z,99093.23
2018-09-26T19:46:58.168Z,99095.80
2018-09-26T19:49:26.662Z,99096.21
2018-09-26T19:51:55.131Z,99092.77
2018-09-26T19:54:23.585Z,99096.60
2018-09-26T19:56:52.185Z,99097.49
2018-09-26T19:59:20.668Z,99102.19
2018-09-26T20:01:49.194Z,99098.27
2018-09-26T20:04:17.662Z,99090.20
2018-09-26T20:06:46.141Z,99091.48
2018-09-26T20:09:14.614Z,99096.13
2018-09-26T20:11:43.085Z,99092.77
2018-09-26T20:14:11.661Z,99091.87
2018-09-26T20:16:40.411Z,99093.66
2018-09-26T20:19:08.985Z,99092.30
2018-09-26T20:21:37.394Z,99088.45
2018-09-26T20:24:05.870Z,99092.30
2018-09-26T20:26:34.425Z,99093.57
2018-09-26T20:29:02.858Z,99096.13
2018-09-26T20:31:31.318Z,99095.23
2018-09-26T20:33:59.796Z,99085.39
2018-09-26T20:36:28.291Z,99092.68
2018-09-26T20:38:56.754Z,99089.66
2018-09-26T20:41:25.235Z,99091.79
2018-09-26T20:43:53.716Z,99045.41
2018-09-26T20:46:22.199Z,99091.79
2018-09-26T20:48:50.674Z,99090.52
2018-09-26T20:51:19.155Z,99088.84
2018-09-26T20:53:47.663Z,99088.38
2018-09-26T20:56:16.139Z,99093.06
2018-09-26T20:58:44.619Z,99095.63
2018-09-26T21:01:13.106Z,99090.42
2018-09-26T21:03:41.574Z,99090.93
2018-09-26T21:06:10.048Z,99087.48
2018-09-26T21:08:38.514Z,99085.31
2018-09-26T21:11:07.015Z,99084.03
2018-09-26T21:13:35.497Z,99083.17
2018-09-26T21:16:03.990Z,99084.92
2018-09-26T21:18:32.483Z,99084.84
2018-09-26T21:21:00.949Z,99081.89
2018-09-26T21:23:29.414Z,99087.88
2018-09-26T21:25:57.899Z,99081.00
2018-09-26T21:28:26.451Z,99083.17
2018-09-26T21:30:54.931Z,99087.09
2018-09-26T21:33:23.422Z,99090.84
2018-09-26T21:35:51.895Z,99085.73
2018-09-26T21:38:20.355Z,99087.78
2018-09-26T21:40:48.846Z,99089.95
2018-09-26T21:43:17.328Z,99084.84
2018-09-26T21:45:45.787Z,99089.95
2018-09-26T21:48:14.279Z,99088.67
2018-09-26T21:50:43.534Z,99092.05
2018-09-26T21:53:12.018Z,99082.20
2018-09-26T21:55:40.494Z,99076.19
2018-09-26T21:58:09.012Z,99083.09
2018-09-26T22:00:41.686Z,99082.20
2018-09-26T22:03:10.150Z,99078.75
2018-09-26T22:05:38.610Z,99077.00
2018-09-26T22:08:07.111Z,99083.78
2018-09-26T22:10:35.583Z,99079.95
2018-09-26T22:13:04.055Z,99083.31
2018-09-26T22:15:32.549Z,99085.48
2018-09-26T22:18:01.013Z,99087.23
2018-09-26T22:20:29.499Z,99083.40
2018-09-26T22:22:57.970Z,99084.20
2018-09-26T22:25:26.460Z,99078.66
2018-09-26T22:27:54.943Z,99067.58
2018-09-26T22:30:23.410Z,99070.99
2018-09-26T22:32:51.902Z,99074.75
2018-09-26T22:35:20.379Z,99085.87
2018-09-26T22:37:48.851Z,99085.06
2018-09-26T22:40:17.335Z,99088.13
2018-09-26T22:42:45.802Z,99090.69
2018-09-26T22:45:14.274Z,99091.07
2018-09-26T22:47:42.745Z,99093.16
2018-09-26T22:50:11.247Z,99093.24
2018-09-26T22:52:39.731Z,99081.65
2018-09-26T22:55:08.224Z,99083.70
2018-09-26T22:57:36.690Z,99080.76
2018-09-26T23:00:05.220Z,99089.32
2018-09-26T23:02:33.713Z,99090.09
2018-09-26T23:05:02.202Z,99089.71
2018-09-26T23:07:30.712Z,99087.16
2018-09-26T23:09:59.212Z,99085.79
2018-09-26T23:12:27.695Z,99084.98
2018-09-26T23:14:56.220Z,99081.14
2018-09-26T23:17:24.700Z,99084.90
2018-09-26T23:19:53.209Z,99081.95
2018-09-26T23:22:21.679Z,99080.59
2018-09-26T23:24:50.163Z,99081.56
2018-09-26T23:27:18.633Z,99073.00
2018-09-26T23:29:47.106Z,99076.03
2018-09-26T23:32:15.598Z,99075.17
2018-09-26T23:34:44.067Z,99073.39
2018-09-26T23:37:12.553Z,99070.83
2018-09-26T23:39:41.027Z,99070.83
2018-09-26T23:42:09.504Z,99072.53
2018-09-26T23:44:38.011Z,99068.27
2018-09-26T23:47:06.521Z,99075.09
2018-09-26T23:49:34.981Z,99069.47
2018-09-26T23:52:03.459Z,99066.52
2018-09-26T23:54:32.004Z,99062.22
2018-09-26T23:57:00.539Z,99062.30
2018-09-26T23:59:29.003Z,99062.69
